INFORMACIÓN METAR y TAF
METAR FOR BGBW
ADDS - METARS form results

(0419 UTC 27 October 2021)
Data provider http://aviationweather.gov/metar/data/
 
METAR text: BGBW 270350Z AUTO 04002KT 9999NDV NCD 01/M07 Q0997
Conditions at: BGBW (NARSSARSSUAQ , GL) observed 0350 UTC 27 October 2021
Temperature: 1.0°C (34°F)
Dewpoint: -7.0°C (19°F) [RH = 55%]
Pressure (altimeter): 29.44 inches Hg (997.0 mb)
Winds: from the NE (40 degrees) at 2 MPH (2 knots; 1.0 m/s)
Visibility: missing
Ceiling: at least 12,000 feet AGL
Clouds: sky clear below 12,000 feet AGL
Weather: no significant weather observed at this time

 MAPA DE AEROPUERTO

 INFORMACIÓN DE PISTA